首页
METAR-TAF:

METAR-TAF

机场 :

基希讷乌国际机场

基希讷乌, 摩尔多瓦

纬度: 46-55-40N, 经度: 028-55-51E, 海拔: 122米

当前天气观测

该预报发布于28分钟前的13:00 UTC
风速6节,风向北转西北
温度 23°C
湿度 73%
气压 1016 hPa
能见度10公里或以上
少量云层高于4900英尺, 积雨云.

METAR: LUKK 181300Z 34006KT 9999 FEW049CB 23/18 Q1016 R26/D TEMPO 04020G30KT 4000 TSRA BKN035CB

时间: 16:28 (13:28 UTC)

预报

该预报发布于2小时和8分钟前的11:20 UTC
预报有效从18日的 12点(UTC)到 19日的 12点(UTC)
风速12节,风向北转东北
能见度10公里或以上
散云层高于3000英尺
短暂存在
从 18日的 12点(UTC)到 18日的 13点(UTC)
风速22节,风向东北,有时为36节阵风
能見度: 1500
多云层高于1500英尺
多云层高于3500英尺, 积雨云.
雷暴, 雨, 冰雹
短暂存在
从 18日的 13点(UTC)到 18日的 16点(UTC)
风速20节,风向东北,有时为30节阵风
能見度: 4000
多云层高于3500英尺, 积雨云.
雷暴, 雨
成为
从 18日的 16点(UTC)到 18日的 18点(UTC)
风速4节,风向北转东北
短暂存在
从 19日的 00点(UTC)到 19日的 05点(UTC)
能見度: 4000
轻雾
短暂存在
从 19日的 10点(UTC)到 19日的 12点(UTC)
散云层高于3500英尺, 积雨云.

TAF: LUKK 181120Z 1812/1912 02012KT 9999 SCT030 TEMPO 1812/1813 04022G36KT 1500 TSRAGR BKN015 BKN035CB TEMPO 1813/1816 04020G30KT 4000 TSRA BKN035CB BECMG 1816/1818 03004KT TEMPO 1900/1905 4000 BR TEMPO 1910/1912 SCT035CB

超过4000个机场的气象观测和天气预报(METAR&TAF报告)。

可查询的气象台以黄色和红色小点在地图上表示。

将鼠标移到小点上方,可查看气象台名称。

然后点击查看天气观测和预报。

如需切换地图:点击带黑十字的绿色按钮放大地图;点击带横线的绿色按钮缩小地图;或者点击绿色箭头查看邻近地区的地图。


METAR-TAF: